ETH1415 HABD-HADR
Flight info
| Callsign | ETH1415 |
|---|---|
| Flight time | N/A |
| Altitude | 35000 |
| Route | SIDES1A SIDES DCT MIWAS DCT DWA |
| Aircraft | B38M/M-SDE1FGHILORVWXY/HB1 |
Departure
| Time | 2026-05-05 13:26 |
|---|---|
| Airport | Bahir Dar Airport (HABD) |
Arrival
| Time | N/A |
|---|---|
| Airport | Aba Tenna Dejazmach Yilma International Airport (HADR) |
| Time | Latitude | Longitude | Altitude | Speed | Heading |
|---|---|---|---|---|---|
| 2026-05-05 13:22 | 11.60505 | 37.31840 | 5988 ft | 13 kts | 226° |
| 2026-05-05 13:22 | 11.60438 | 37.31769 | 5991 ft | 14 kts | 224° |
| 2026-05-05 13:23 | 11.60366 | 37.31699 | 5993 ft | 15 kts | 224° |
| 2026-05-05 13:23 | 11.60273 | 37.31607 | 5998 ft | 22 kts | 224° |
| 2026-05-05 13:23 | 11.60144 | 37.31478 | 6004 ft | 29 kts | 224° |
| 2026-05-05 13:23 | 11.59984 | 37.31316 | 6013 ft | 36 kts | 225° |
| 2026-05-05 13:24 | 11.59791 | 37.31119 | 6020 ft | 42 kts | 224° |
| 2026-05-05 13:24 | 11.59574 | 37.30908 | 6029 ft | 30 kts | 216° |
| 2026-05-05 13:24 | 11.59421 | 37.30829 | 6034 ft | 16 kts | 219° |
| 2026-05-05 13:24 | 11.59431 | 37.30771 | 6035 ft | 10 kts | 351° |
| 2026-05-05 13:25 | 11.59462 | 37.30788 | 6033 ft | 2 kts | 43° |
| 2026-05-05 13:25 | 11.59503 | 37.30830 | 6031 ft | 24 kts | 46° |
| 2026-05-05 13:25 | 11.59765 | 37.31092 | 6021 ft | 80 kts | 45° |
| 2026-05-05 13:25 | 11.60282 | 37.31619 | 5997 ft | 128 kts | 45° |
| 2026-05-05 13:26 | 11.61008 | 37.32364 | 5971 ft | 167 kts | 45° |
| 2026-05-05 13:26 | 11.61876 | 37.33269 | 6142 ft | 182 kts | 45° |
| 2026-05-05 13:26 | 11.62777 | 37.34202 | 6456 ft | 192 kts | 44° |
| 2026-05-05 13:26 | 11.63729 | 37.35232 | 6790 ft | 203 kts | 47° |
| 2026-05-05 13:27 | 11.64738 | 37.36292 | 7390 ft | 212 kts | 36° |
| 2026-05-05 13:27 | 11.66114 | 37.36875 | 7939 ft | 226 kts | 3° |
| 2026-05-05 13:27 | 11.67687 | 37.36439 | 8283 ft | 249 kts | 324° |
| 2026-05-05 13:27 | 11.68732 | 37.35023 | 8899 ft | 264 kts | 290° |
| 2026-05-05 13:28 | 11.68803 | 37.33129 | 9466 ft | 275 kts | 254° |
| 2026-05-05 13:28 | 11.67813 | 37.31442 | 10029 ft | 288 kts | 223° |
| 2026-05-05 13:28 | 11.66045 | 37.30482 | 10698 ft | 290 kts | 190° |
| 2026-05-05 13:28 | 11.64029 | 37.30561 | 11386 ft | 296 kts | 164° |
| 2026-05-05 13:29 | 11.62063 | 37.31135 | 12385 ft | 291 kts | 162° |
| 2026-05-05 13:29 | 11.60110 | 37.31710 | 13238 ft | 298 kts | 157° |
| 2026-05-05 13:29 | 11.58250 | 37.32758 | 13742 ft | 313 kts | 142° |
| 2026-05-05 13:29 | 11.56403 | 37.34021 | 14324 ft | 326 kts | 146° |
| 2026-05-05 13:30 | 11.54456 | 37.35250 | 15122 ft | 330 kts | 147° |
| 2026-05-05 13:30 | 11.52501 | 37.36443 | 15891 ft | 335 kts | 148° |
| 2026-05-05 13:30 | 11.50475 | 37.37658 | 16644 ft | 340 kts | 148° |
| 2026-05-05 13:30 | 11.48396 | 37.38891 | 17457 ft | 343 kts | 148° |
| 2026-05-05 13:31 | 11.46339 | 37.40102 | 18161 ft | 349 kts | 149° |
| 2026-05-05 13:31 | 11.44218 | 37.41347 | 18787 ft | 354 kts | 149° |
| 2026-05-05 13:31 | 11.42076 | 37.42603 | 19453 ft | 357 kts | 148° |
| 2026-05-05 13:31 | 11.39911 | 37.43870 | 20039 ft | 362 kts | 149° |
| 2026-05-05 13:32 | 11.37713 | 37.45158 | 20640 ft | 367 kts | 149° |
| 2026-05-05 13:32 | 11.35487 | 37.46461 | 21252 ft | 371 kts | 148° |
| 2026-05-05 13:32 | 11.33239 | 37.47775 | 21838 ft | 375 kts | 149° |
| 2026-05-05 13:32 | 11.30961 | 37.49108 | 22388 ft | 380 kts | 149° |
| 2026-05-05 13:33 | 11.28661 | 37.50455 | 22965 ft | 384 kts | 149° |
| 2026-05-05 13:33 | 11.26348 | 37.51808 | 23433 ft | 390 kts | 149° |
| 2026-05-05 13:33 | 11.23956 | 37.53207 | 23911 ft | 394 kts | 149° |
| 2026-05-05 13:33 | 11.21571 | 37.54602 | 24383 ft | 397 kts | 150° |
| 2026-05-05 13:34 | 11.19168 | 37.56007 | 24915 ft | 398 kts | 150° |
| 2026-05-05 13:34 | 11.16761 | 37.57415 | 25420 ft | 401 kts | 150° |
| 2026-05-05 13:34 | 11.14331 | 37.58836 | 25897 ft | 404 kts | 150° |
| 2026-05-05 13:34 | 11.11889 | 37.60264 | 26366 ft | 406 kts | 150° |
| 2026-05-05 13:35 | 11.09428 | 37.61702 | 26845 ft | 409 kts | 150° |
| 2026-05-05 13:35 | 11.06955 | 37.63147 | 27286 ft | 412 kts | 150° |
| 2026-05-05 13:35 | 11.04486 | 37.64648 | 27724 ft | 415 kts | 144° |
| 2026-05-05 13:35 | 11.02406 | 37.66686 | 28155 ft | 418 kts | 127° |
| 2026-05-05 13:36 | 11.00835 | 37.69191 | 28521 ft | 423 kts | 122° |
| 2026-05-05 13:36 | 10.99287 | 37.71764 | 28884 ft | 427 kts | 121° |
| 2026-05-05 13:36 | 10.97743 | 37.74368 | 29284 ft | 432 kts | 121° |
| 2026-05-05 13:36 | 10.96205 | 37.76993 | 29742 ft | 433 kts | 121° |
| 2026-05-05 13:37 | 10.94664 | 37.79641 | 30160 ft | 435 kts | 121° |
| 2026-05-05 13:37 | 10.93119 | 37.82298 | 30484 ft | 438 kts | 121° |
| 2026-05-05 13:37 | 10.91562 | 37.84979 | 30788 ft | 442 kts | 121° |
| 2026-05-05 13:37 | 10.89992 | 37.87683 | 31094 ft | 445 kts | 121° |
| 2026-05-05 13:38 | 10.88417 | 37.90394 | 31503 ft | 446 kts | 121° |
| 2026-05-05 13:38 | 10.86836 | 37.93113 | 31862 ft | 447 kts | 121° |
| 2026-05-05 13:38 | 10.85247 | 37.95847 | 32179 ft | 450 kts | 121° |
| 2026-05-05 13:38 | 10.83650 | 37.98593 | 32520 ft | 453 kts | 121° |
| 2026-05-05 13:39 | 10.82041 | 38.01360 | 32846 ft | 455 kts | 121° |
| 2026-05-05 13:39 | 10.80430 | 38.04129 | 33214 ft | 456 kts | 121° |
| 2026-05-05 13:39 | 10.78813 | 38.06907 | 33623 ft | 456 kts | 121° |
| 2026-05-05 13:39 | 10.77197 | 38.09684 | 33994 ft | 456 kts | 121° |
| 2026-05-05 13:40 | 10.75602 | 38.12423 | 34342 ft | 456 kts | 121° |
| 2026-05-05 13:40 | 10.73989 | 38.15194 | 34715 ft | 455 kts | 121° |
| 2026-05-05 13:40 | 10.72371 | 38.17972 | 34919 ft | 456 kts | 121° |
| 2026-05-05 13:40 | 10.70760 | 38.20736 | 34902 ft | 453 kts | 121° |
| 2026-05-05 13:41 | 10.67550 | 38.26243 | 34910 ft | 453 kts | 121° |
| 2026-05-05 13:41 | 10.64349 | 38.31732 | 34879 ft | 450 kts | 121° |
| 2026-05-05 13:42 | 10.61152 | 38.37209 | 34880 ft | 452 kts | 121° |
| 2026-05-05 13:42 | 10.57947 | 38.42701 | 34871 ft | 450 kts | 121° |
| 2026-05-05 13:43 | 10.54749 | 38.48175 | 34865 ft | 451 kts | 121° |
| 2026-05-05 13:43 | 10.51544 | 38.53660 | 34843 ft | 451 kts | 121° |
| 2026-05-05 13:44 | 10.48344 | 38.59132 | 34840 ft | 450 kts | 121° |
| 2026-05-05 13:44 | 10.45140 | 38.64610 | 34848 ft | 452 kts | 121° |
| 2026-05-05 13:45 | 10.41930 | 38.70095 | 34841 ft | 451 kts | 121° |
| 2026-05-05 13:45 | 10.38740 | 38.75542 | 34838 ft | 453 kts | 121° |
| 2026-05-05 13:46 | 10.35525 | 38.81030 | 34822 ft | 451 kts | 121° |
| 2026-05-05 13:46 | 10.32319 | 38.86499 | 34829 ft | 451 kts | 121° |
| 2026-05-05 13:47 | 10.29101 | 38.91988 | 34835 ft | 451 kts | 121° |
| 2026-05-05 13:47 | 10.25900 | 38.97442 | 34838 ft | 449 kts | 121° |
| 2026-05-05 13:48 | 10.22690 | 39.02913 | 34848 ft | 451 kts | 121° |
| 2026-05-05 13:48 | 10.19485 | 39.08369 | 34851 ft | 449 kts | 121° |
| 2026-05-05 13:49 | 10.16280 | 39.13823 | 34872 ft | 451 kts | 121° |
| 2026-05-05 13:49 | 10.13070 | 39.19286 | 34869 ft | 448 kts | 121° |
| 2026-05-05 13:50 | 10.09875 | 39.24718 | 34900 ft | 449 kts | 121° |
| 2026-05-05 13:50 | 10.06668 | 39.30168 | 34902 ft | 450 kts | 121° |
| 2026-05-05 13:51 | 10.03468 | 39.35603 | 34935 ft | 449 kts | 121° |
| 2026-05-05 13:51 | 10.00261 | 39.41049 | 34967 ft | 450 kts | 121° |
| 2026-05-05 13:52 | 9.97058 | 39.46486 | 34965 ft | 448 kts | 121° |
| 2026-05-05 13:52 | 9.93855 | 39.51917 | 34975 ft | 450 kts | 121° |
| 2026-05-05 13:53 | 9.90646 | 39.57360 | 34979 ft | 448 kts | 121° |
| 2026-05-05 13:53 | 9.87443 | 39.62787 | 34975 ft | 448 kts | 121° |
| 2026-05-05 13:54 | 9.84234 | 39.68222 | 34955 ft | 449 kts | 121° |
| 2026-05-05 13:54 | 9.81032 | 39.73642 | 34949 ft | 448 kts | 121° |
| 2026-05-05 13:55 | 9.77824 | 39.79072 | 34926 ft | 450 kts | 121° |
| 2026-05-05 13:55 | 9.74637 | 39.84465 | 34918 ft | 448 kts | 121° |
| 2026-05-05 13:56 | 9.71431 | 39.89884 | 34874 ft | 449 kts | 121° |
| 2026-05-05 13:56 | 9.68215 | 39.95319 | 34837 ft | 449 kts | 121° |
| 2026-05-05 13:57 | 9.65010 | 40.00734 | 34838 ft | 448 kts | 121° |
| 2026-05-05 13:57 | 9.61794 | 40.06165 | 34805 ft | 450 kts | 121° |
| 2026-05-05 13:58 | 9.58582 | 40.11583 | 34789 ft | 448 kts | 121° |
| 2026-05-05 13:58 | 9.55367 | 40.17010 | 34776 ft | 450 kts | 121° |
| 2026-05-05 13:59 | 9.51086 | 40.24228 | 34765 ft | 448 kts | 121° |
| 2026-05-05 14:00 | 9.46256 | 40.32368 | 34778 ft | 450 kts | 121° |
| 2026-05-05 14:00 | 9.43038 | 40.37788 | 34768 ft | 449 kts | 121° |
| 2026-05-05 14:01 | 9.41558 | 40.40571 | 34769 ft | 448 kts | 110° |
| 2026-05-05 14:01 | 9.40795 | 40.43613 | 34792 ft | 445 kts | 94° |
| 2026-05-05 14:01 | 9.40852 | 40.46686 | 34796 ft | 432 kts | 81° |
| 2026-05-05 14:01 | 9.41266 | 40.49685 | 34811 ft | 428 kts | 80° |
| 2026-05-05 14:02 | 9.42196 | 40.55569 | 34799 ft | 425 kts | 79° |
| 2026-05-05 14:02 | 9.43200 | 40.61468 | 34793 ft | 425 kts | 79° |
| 2026-05-05 14:03 | 9.44225 | 40.67365 | 34809 ft | 424 kts | 79° |
| 2026-05-05 14:03 | 9.45248 | 40.73254 | 34808 ft | 425 kts | 79° |
| 2026-05-05 14:04 | 9.46270 | 40.79145 | 34822 ft | 425 kts | 79° |
| 2026-05-05 14:04 | 9.47291 | 40.85033 | 34819 ft | 425 kts | 79° |
| 2026-05-05 14:05 | 9.48310 | 40.90922 | 34825 ft | 424 kts | 79° |
| 2026-05-05 14:05 | 9.49326 | 40.96796 | 34808 ft | 423 kts | 79° |
| 2026-05-05 14:06 | 9.50341 | 41.02667 | 34824 ft | 423 kts | 79° |
| 2026-05-05 14:06 | 9.51355 | 41.08540 | 34826 ft | 423 kts | 79° |
| 2026-05-05 14:07 | 9.52367 | 41.14411 | 34841 ft | 423 kts | 78° |
| 2026-05-05 14:07 | 9.53376 | 41.20266 | 34851 ft | 422 kts | 79° |
| 2026-05-05 14:08 | 9.54383 | 41.26120 | 34852 ft | 422 kts | 78° |
| 2026-05-05 14:08 | 9.55384 | 41.31942 | 34830 ft | 422 kts | 79° |
| 2026-05-05 14:09 | 9.56390 | 41.37799 | 34844 ft | 422 kts | 79° |
| 2026-05-05 14:09 | 9.57394 | 41.43651 | 34859 ft | 421 kts | 79° |
| 2026-05-05 14:10 | 9.58397 | 41.49498 | 34857 ft | 421 kts | 79° |
| 2026-05-05 14:10 | 9.59399 | 41.55350 | 34873 ft | 421 kts | 79° |
| 2026-05-05 14:11 | 9.60398 | 41.61198 | 34877 ft | 420 kts | 78° |
| 2026-05-05 14:11 | 9.61395 | 41.67030 | 34840 ft | 420 kts | 79° |
| 2026-05-05 14:12 | 9.62391 | 41.72868 | 34847 ft | 420 kts | 79° |
| 2026-05-05 14:12 | 9.63386 | 41.78699 | 34859 ft | 420 kts | 79° |
| 2026-05-05 14:13 | 9.64378 | 41.84534 | 34856 ft | 420 kts | 79° |
| 2026-05-05 14:13 | 9.65150 | 41.89438 | 34867 ft | 420 kts | 80° |